Latest Coastal Weather Observations for Adele Island

IDW60701

Issued at 6:45 pm WST Friday 18 April 2014 (issued every 10 minutes, with the page automatically refreshed every 10 minutes)

About coastal observations | Map of coastal stations | Coastal observations for WA | Marine services | Other Formats
Station Details ID: 200735 Name: ADELE ISLAND Lat: -15.51 Lon: 123.16 Height: 4.6 m
Data from the previous 72 hours. | See also: Recent months for locations in Western Australia
Date/Time
WST
Temp

°C
Wind Pressure Rain
since 9am
mm
Weather Cloud Vis
km
Sea
Height
m
Swell
Dir
 
Speed
knots
Gust
knots
hPa Trend Height
m
Period
s
Dir
18/06:30pm 29.9 SE 4 5 1011.3 - - - - - - - - -
18/06:00pm 29.8 SE 4 4 1011.0 - - - - - - - - -
18/05:30pm 29.6 SE 4 5 1010.8 - - - - - - - - -
18/05:00pm 30.4 E 6 7 1010.6 - - - - - - - - -
18/04:30pm 30.8 ESE 7 9 1010.4 - - - - - - - - -
18/04:00pm 31.2 SE 8 9 1009.9 - - - - - - - - -
18/03:30pm 31.2 SE 8 9 1010.0 - - - - - - - - -
18/03:00pm 31.6 ESE 9 11 1010.0 - - - - - - - - -
18/02:30pm 31.4 ESE 10 12 1010.2 - - - - - - - - -
18/02:00pm 31.1 ESE 11 14 1010.3 - - - - - - - - -
18/01:30pm 31.5 ESE 11 14 1010.5 - - - - - - - - -
18/01:00pm 31.6 ESE 11 13 1010.7 - - - - - - - - -
18/12:30pm 32.6 E 11 14 1011.1 - - - - - - - - -
18/12:00pm 31.8 ESE 12 15 1011.3 - - - - - - - - -
18/11:30am 31.7 ESE 12 15 1011.6 - - - - - - - - -
18/11:00am 31.5 ESE 12 14 1011.8 - - - - - - - - -
18/10:30am 30.8 SE 11 13 1012.3 - - - - - - - - -
18/10:00am 31.0 ESE 11 14 1012.6 - - - - - - - - -
18/09:30am 30.7 SSE 9 12 1012.9 - - - - - - - - -
18/09:00am 30.6 SSE 9 12 1012.6 - - - - - - - - -
18/08:30am 30.6 S 10 11 1012.5 - - - - - - - - -
18/08:00am 30.1 S 10 11 1012.2 - - - - - - - - -
18/07:30am 29.6 SE 7 8 1012.2 - - - - - - - - -
18/07:00am 28.7 S 8 8 1012.0 - - - - - - - - -
18/06:30am 27.9 SSE 9 10 1012.0 - - - - - - - - -
18/06:00am 28.8 S 7 8 1011.7 - - - - - - - - -
18/05:30am 28.6 S 6 7 1011.7 - - - - - - - - -
18/05:00am 29.0 S 6 6 1011.4 - - - - - - - - -
18/04:30am 29.3 SSE 5 5 1011.4 - - - - - - - - -
18/04:00am 29.2 S 6 7 1011.2 - - - - - - - - -
18/03:30am 29.3 SE 5 7 1011.2 - - - - - - - - -
18/03:00am 29.1 S 6 6 1011.1 - - - - - - - - -
18/02:30am 29.4 S 6 7 1011.2 - - - - - - - - -
18/02:00am 29.3 S 7 8 1011.3 - - - - - - - - -
18/01:30am 29.2 ENE 5 5 1011.5 - - - - - - - - -
18/01:00am 29.1 E 4 5 1011.6 - - - - - - - - -
18/12:30am 29.4 SE 5 6 1011.9 - - - - - - - - -
18/12:00am 29.0 SE 5 7 1012.3 - - - - - - - - -
 
Date/Time
WST
Temp

°C
Wind Pressure Rain
since 9am
mm
Weather Cloud Vis
km
Sea
Height
m
Swell
Dir
 
Speed
knots
Gust
knots
hPa Trend Height
m
Period
s
Dir
17/11:30pm 29.1 E 4 6 1012.6 - - - - - - - - -
17/11:00pm 29.1 SE 5 6 1012.7 - - - - - - - - -
17/10:00pm 29.4 SSE 8 8 1012.8 - - - - - - - - -
17/09:30pm 30.2 E 5 6 1012.9 - - - - - - - - -
17/09:00pm 29.7 ESE 6 6 1012.7 - - - - - - - - -
17/08:30pm 29.5 SE 5 6 1012.9 - - - - - - - - -
17/08:00pm 29.8 CALM 0 0 1012.5 - - - - - - - - -
17/07:30pm 28.9 NE 3 4 1012.4 - - - - - - - - -
17/07:00pm 30.1 ENE 4 4 1012.0 - - - - - - - - -
17/06:30pm 29.9 ENE 4 4 1011.8 - - - - - - - - -
17/06:00pm 29.5 ESE 4 5 1011.5 - - - - - - - - -
17/05:30pm 29.4 SE 4 5 1011.3 - - - - - - - - -
17/05:00pm 30.2 SE 6 7 1010.7 - - - - - - - - -
17/04:30pm 30.9 SE 7 8 1010.6 - - - - - - - - -
17/04:00pm 31.1 SE 7 9 1010.2 - - - - - - - - -
17/03:30pm 31.3 ESE 8 9 1010.2 - - - - - - - - -
17/03:00pm 31.4 ESE 8 11 1009.9 - - - - - - - - -
17/02:30pm 31.8 ESE 9 11 1010.1 - - - - - - - - -
17/02:00pm 31.3 ESE 9 11 1010.2 - - - - - - - - -
17/01:30pm 31.7 ESE 10 13 1010.4 - - - - - - - - -
17/01:00pm 31.5 ESE 11 14 1010.5 - - - - - - - - -
17/12:30pm 31.5 ESE 11 13 1010.8 - - - - - - - - -
17/12:00pm 31.5 ESE 10 13 1011.0 - - - - - - - - -
17/11:30am 31.5 ESE 10 12 1011.5 - - - - - - - - -
17/11:00am 30.7 SE 9 11 1011.8 - - - - - - - - -
17/10:30am 30.8 SE 8 9 1012.3 - - - - - - - - -
17/10:00am 31.0 ESE 9 11 1012.7 - - - - - - - - -
17/09:30am 30.6 ESE 9 12 1013.1 - - - - - - - - -
17/09:00am 31.3 ESE 9 11 1013.0 - - - - - - - - -
17/08:30am 30.3 SE 7 8 1013.0 - - - - - - - - -
17/08:00am 29.8 E 5 6 1012.6 - - - - - - - - -
17/07:30am 29.6 CALM 0 4 1012.4 - - - - - - - - -
17/07:00am 30.0 CALM 0 2 1012.1 - - - - - - - - -
17/06:30am 29.0 CALM 0 2 1012.1 - - - - - - - - -
17/06:00am 28.7 SE 2 3 1011.4 - - - - - - - - -
17/05:30am 28.5 CALM 0 0 1011.2 - - - - - - - - -
17/05:00am 28.4 CALM 0 0 1011.0 - - - - - - - - -
17/04:30am 28.5 CALM 0 0 1011.2 - - - - - - - - -
17/04:00am 28.5 CALM 0 0 1011.0 - - - - - - - - -
17/03:30am 28.6 CALM 0 0 1010.8 - - - - - - - - -
17/03:00am 28.6 CALM 0 0 1010.7 - - - - - - - - -
17/02:30am 28.9 CALM 0 0 1010.9 - - - - - - - - -
17/02:00am 28.7 S 4 5 1010.9 - - - - - - - - -
17/01:30am 28.8 S 4 4 1011.1 - - - - - - - - -
17/01:00am 28.7 S 5 6 1011.0 - - - - - - - - -
17/12:30am 28.9 S 5 6 1011.6 - - - - - - - - -
17/12:00am 29.0 S 6 7 1011.6 - - - - - - - - -
 
Date/Time
WST
Temp

°C
Wind Pressure Rain
since 9am
mm
Weather Cloud Vis
km
Sea
Height
m
Swell
Dir
 
Speed
knots
Gust
knots
hPa Trend Height
m
Period
s
Dir
16/11:30pm 28.8 S 4 5 1011.7 - - - - - - - - -
16/11:00pm 29.1 S 3 4 1011.6 - - - - - - - - -
16/10:30pm 29.2 S 4 5 1011.8 - - - - - - - - -
16/10:00pm 28.7 S 5 6 1011.8 - - - - - - - - -
16/09:30pm 28.6 SSE 6 6 1011.8 - - - - - - - - -
16/09:00pm 29.1 SE 4 5 1011.6 - - - - - - - - -
16/08:30pm 28.9 SE 4 5 1011.5 - - - - - - - - -
16/08:00pm 28.9 ESE 4 5 1011.2 - - - - - - - - -
16/07:30pm 29.2 E 5 5 1010.9 - - - - - - - - -
16/07:00pm 29.1 E 4 5 1010.4 - - - - - - - - -
16/06:30pm 29.0 E 5 5 1010.2 - - - - - - - - -
16/06:00pm 29.7 E 6 7 1009.9 - - - - - - - - -
16/05:30pm 29.3 E 3 7 1010.0 - - - - - - - - -
16/05:00pm 29.6 E 6 8 1009.5 - - - - - - - - -
16/04:30pm 30.0 E 7 9 1009.4 - - - - - - - - -
16/04:00pm 30.6 E 8 10 1009.2 - - - - - - - - -
16/03:30pm 30.7 ENE 9 12 1009.2 - - - - - - - - -
16/03:00pm 31.0 ENE 10 14 1009.1 - - - - - - - - -
16/02:30pm 30.9 NE 11 14 1009.3 - - - - - - - - -
16/02:00pm 30.8 NE 13 16 1009.4 - - - - - - - - -
16/01:30pm 31.0 ENE 12 15 1009.8 - - - - - - - - -
16/01:00pm 30.6 ENE 14 17 1009.9 - - - - - - - - -
16/12:30pm 30.4 E 13 16 1010.3 - - - - - - - - -
16/12:00pm 30.3 E 14 16 1010.7 - - - - - - - - -
16/11:30am 30.4 NE 13 17 1011.1 - - - - - - - - -
16/11:00am 30.3 ENE 14 18 1011.4 - - - - - - - - -
16/10:30am 30.3 E 14 17 1011.9 - - - - - - - - -
16/10:00am 30.4 E 13 17 1012.0 - - - - - - - - -
16/09:30am 30.2 E 16 19 1012.2 - - - - - - - - -
16/09:00am 30.1 E 16 20 1012.1 - - - - - - - - -
16/08:30am 30.2 E 15 20 1011.9 - - - - - - - - -
16/08:00am 29.9 E 16 19 1011.6 - - - - - - - - -
16/07:30am 29.6 E 16 20 1011.5 - - - - - - - - -
16/07:00am 29.3 ESE 13 17 1011.2 - - - - - - - - -
16/06:30am 29.2 ESE 13 17 1011.0 - - - - - - - - -
16/06:00am 28.1 SE 9 11 1010.8 - - - - - - - - -
16/05:30am 27.7 SSE 11 13 1010.6 - - - - - - - - -
16/05:00am 27.4 SSE 9 11 1010.3 - - - - - - - - -
16/04:30am 28.7 S 9 12 1010.3 - - - - - - - - -
16/04:00am 27.6 SSE 9 11 1010.2 - - - - - - - - -
16/03:30am 28.0 S 8 9 1010.2 - - - - - - - - -
16/03:00am 28.8 SSW 8 10 1010.3 - - - - - - - - -
16/02:30am 29.1 W 6 7 1010.7 - - - - - - - - -
16/02:00am 29.3 WSW 7 8 1010.8 - - - - - - - - -
16/01:30am 28.6 WSW 6 8 1011.1 - - - - - - - - -
16/01:00am 29.0 NW 5 6 1011.3 - - - - - - - - -
16/12:30am 29.3 WNW 5 6 1011.8 - - - - - - - - -
16/12:00am 29.2 NNW 4 6 1011.8 - - - - - - - - -
 
Date/Time
WST
Temp

°C
Wind Pressure Rain
since 9am
mm
Weather Cloud Vis
km
Sea
Height
m
Swell
Dir
 
Speed
knots
Gust
knots
hPa Trend Height
m
Period
s
Dir
15/11:30pm 29.1 N 4 5 1012.2 - - - - - - - - -
15/11:00pm 29.4 N 4 5 1012.2 - - - - - - - - -
15/10:30pm 29.1 N 2 4 1012.3 - - - - - - - - -
15/10:00pm 29.0 CALM 0 0 1012.3 - - - - - - - - -
15/09:30pm 28.7 CALM 0 0 1012.4 - - - - - - - - -
15/09:00pm 29.2 S 6 6 1012.2 - - - - - - - - -
15/08:30pm 29.0 SSE 6 6 1012.2 - - - - - - - - -
15/08:00pm 28.6 ENE 4 5 1012.0 - - - - - - - - -
15/07:30pm 29.1 ENE 4 5 1011.8 - - - - - - - - -
15/07:00pm 29.0 NNE 3 4 1011.4 - - - - - - - - -

Other Formats:

Comma delimited format used in spreadsheet applications
http://www.bom.gov.au/fwo/IDW60701/IDW60701.94210.axf

JavaScript Object Notation format (JSON) in row-major order
http://www.bom.gov.au/fwo/IDW60701/IDW60701.94210.json